Time;durP1;ratioP1;P1;durP2;ratioP2;P2;SDS_P1;SDS_P2;PMS_P1;PMS_P2;Temp;Humidity;BMP_temperature;BMP_pressure;BME280_temperature;BME280_humidity;BME280_pressure;Samples;Min_cycle;Max_cycle;Signal;HPM_P1;HPM_P2
2021/10/13 00:01:17;;;;;;;8.48;4.30;;;4.20;99.90;;;;;;5075819;28;20080;-81
2021/10/13 00:03:44;;;;;;;4.28;3.97;;;4.20;99.90;;;;;;5076719;28;20452;-81
2021/10/13 00:06:10;;;;;;;4.85;4.45;;;4.20;99.90;;;;;;5075986;28;20413;-81
2021/10/13 00:08:37;;;;;;;3.45;3.25;;;4.20;99.90;;;;;;5076923;28;20124;-82
2021/10/13 00:11:04;;;;;;;3.75;3.53;;;4.20;99.90;;;;;;5075547;28;20127;-80
2021/10/13 00:13:31;;;;;;;3.42;3.15;;;4.20;99.90;;;;;;5077403;28;20119;-81
2021/10/13 00:15:58;;;;;;;2.80;2.70;;;4.30;99.90;;;;;;5075331;28;20527;-80
2021/10/13 00:18:25;;;;;;;6.35;3.90;;;4.30;99.90;;;;;;5077222;28;20494;-81
2021/10/13 00:20:52;;;;;;;4.25;3.95;;;4.30;99.90;;;;;;5077053;28;20131;-81
2021/10/13 00:23:19;;;;;;;4.43;4.03;;;4.40;99.90;;;;;;5076517;28;20136;-81
2021/10/13 00:25:45;;;;;;;5.85;5.18;;;4.30;99.90;;;;;;5075588;28;20498;-82
2021/10/13 00:28:12;;;;;;;4.60;4.20;;;4.40;99.90;;;;;;5075407;28;20053;-82
2021/10/13 00:30:39;;;;;;;4.53;4.15;;;4.40;99.90;;;;;;5075652;28;20078;-80
2021/10/13 00:33:06;;;;;;;4.85;4.45;;;4.40;99.90;;;;;;5076429;28;20098;-81
2021/10/13 00:35:33;;;;;;;5.18;4.70;;;4.50;99.90;;;;;;5077172;28;20472;-81
2021/10/13 00:37:59;;;;;;;4.38;4.07;;;4.40;99.90;;;;;;5075516;28;20057;-80
2021/10/13 00:40:29;;;;;;;4.60;4.20;;;4.50;99.90;;;;;;5075962;28;20087;-81
2021/10/13 00:42:56;;;;;;;5.38;4.75;;;4.50;99.90;;;;;;5077173;28;20506;-80
2021/10/13 00:45:23;;;;;;;5.82;4.70;;;4.50;99.90;;;;;;5077253;28;20094;-81
2021/10/13 00:47:49;;;;;;;6.55;5.38;;;4.50;99.90;;;;;;5075358;28;20132;-81
2021/10/13 00:50:16;;;;;;;7.15;5.10;;;4.50;99.90;;;;;;5075395;28;20132;-80
2021/10/13 00:52:43;;;;;;;5.20;4.72;;;4.50;99.90;;;;;;5075465;28;20108;-81
2021/10/13 00:55:20;;;;;;;5.78;4.97;;;4.50;99.90;;;;;;5076117;28;20059;-81
2021/10/13 00:57:49;;;;;;;5.10;4.68;;;4.50;99.90;;;;;;5077359;28;20052;-82
2021/10/13 01:00:17;;;;;;;4.78;4.28;;;4.50;99.90;;;;;;5076121;28;20052;-81
2021/10/13 01:03:07;;;;;;;6.15;4.68;;;4.50;99.90;;;;;;5075447;28;20484;-81
2021/10/13 01:05:50;;;;;;;6.18;3.95;;;4.50;99.90;;;;;;5077448;28;20487;-81
2021/10/13 01:08:33;;;;;;;5.63;3.67;;;4.50;99.90;;;;;;5078656;28;20466;-81
2021/10/13 01:11:19;;;;;;;4.55;4.15;;;4.60;99.90;;;;;;5076240;28;20072;-81
2021/10/13 01:13:54;;;;;;;4.75;3.92;;;4.60;99.90;;;;;;5074352;28;20132;-81
2021/10/13 01:16:41;;;;;;;3.60;3.25;;;4.60;99.90;;;;;;5074391;28;20054;-81
2021/10/13 01:19:32;;;;;;;3.30;3.10;;;4.60;99.90;;;;;;5074552;28;20087;-82
2021/10/13 01:22:24;;;;;;;5.68;3.03;;;4.50;99.90;;;;;;5074238;28;20481;-80
2021/10/13 01:25:27;;;;;;;3.60;3.30;;;4.60;99.90;;;;;;5074592;28;20127;-81
2021/10/13 01:28:00;;;;;;;3.40;3.10;;;4.60;99.90;;;;;;5075335;28;20066;-81
2021/10/13 01:30:41;;;;;;;3.50;3.20;;;4.60;99.90;;;;;;5075640;28;20455;-82
2021/10/13 01:33:20;;;;;;;4.10;3.80;;;4.60;99.90;;;;;;5074357;28;20696;-81
2021/10/13 01:35:50;;;;;;;3.85;3.55;;;4.60;99.90;;;;;;5074066;28;20048;-81
2021/10/13 01:38:21;;;;;;;3.88;3.58;;;4.60;99.90;;;;;;5073820;28;20135;-81
2021/10/13 01:40:51;;;;;;;4.00;3.70;;;4.60;99.90;;;;;;5074090;28;20052;-81
2021/10/13 01:43:20;;;;;;;3.47;3.25;;;4.60;99.90;;;;;;5074040;28;20135;-81
2021/10/13 01:45:49;;;;;;;3.40;3.20;;;4.70;99.90;;;;;;5075088;28;20135;-81
2021/10/13 01:48:17;;;;;;;3.85;3.55;;;4.70;99.90;;;;;;5075474;28;20135;-81
2021/10/13 01:50:46;;;;;;;4.40;2.85;;;4.70;99.90;;;;;;5074228;28;20128;-81
2021/10/13 01:53:16;;;;;;;3.72;3.08;;;4.70;99.90;;;;;;5073896;28;20131;-81
2021/10/13 01:55:45;;;;;;;4.28;3.97;;;4.70;99.90;;;;;;5074329;28;20049;-80
2021/10/13 01:58:15;;;;;;;4.43;3.80;;;4.80;99.90;;;;;;5072569;28;20660;-81
2021/10/13 02:00:46;;;;;;;4.50;3.47;;;4.80;99.90;;;;;;5074010;28;20143;-81
2021/10/13 02:03:14;;;;;;;3.55;3.25;;;4.80;99.90;;;;;;5075638;28;20510;-81
2021/10/13 02:05:43;;;;;;;4.35;3.95;;;4.90;99.90;;;;;;5074269;28;20076;-82
2021/10/13 02:08:13;;;;;;;3.45;3.15;;;4.90;99.90;;;;;;5074565;28;20120;-82
2021/10/13 02:10:43;;;;;;;3.25;3.05;;;5.00;99.90;;;;;;5074362;28;20516;-81
2021/10/13 02:13:11;;;;;;;4.80;4.40;;;5.00;99.90;;;;;;5076402;28;20132;-81
2021/10/13 02:15:41;;;;;;;4.43;3.40;;;5.00;99.90;;;;;;5076010;28;20490;-80
2021/10/13 02:18:18;;;;;;;3.67;3.38;;;4.90;99.90;;;;;;5074677;28;20132;-81
2021/10/13 02:20:47;;;;;;;4.82;3.78;;;5.00;99.90;;;;;;5075895;28;20517;-82
2021/10/13 02:23:15;;;;;;;3.88;3.10;;;4.90;99.90;;;;;;5074375;28;20131;-83
2021/10/13 02:25:46;;;;;;;4.13;3.40;;;5.00;99.90;;;;;;5076827;28;20135;-83
2021/10/13 02:28:19;;;;;;;3.58;3.38;;;4.90;99.90;;;;;;5073622;28;20136;-82
2021/10/13 02:30:46;;;;;;;3.17;2.97;;;4.80;99.90;;;;;;5074689;28;20127;-82
2021/10/13 02:33:13;;;;;;;3.47;3.22;;;4.70;99.90;;;;;;5075137;28;20127;-82
2021/10/13 02:35:39;;;;;;;3.33;3.03;;;4.70;99.90;;;;;;5074461;28;20131;-82
2021/10/13 02:38:06;;;;;;;3.55;3.22;;;4.60;99.90;;;;;;5073124;28;20058;-83
2021/10/13 02:40:33;;;;;;;6.25;3.83;;;4.60;99.90;;;;;;5073104;28;20054;-82
2021/10/13 02:43:00;;;;;;;4.13;3.75;;;4.70;99.90;;;;;;5073030;28;20103;-82
2021/10/13 02:45:33;;;;;;;4.07;3.67;;;4.70;99.90;;;;;;5074629;28;20059;-81
2021/10/13 02:48:05;;;;;;;6.30;3.50;;;4.70;99.90;;;;;;5073246;28;20040;-82
2021/10/13 02:51:00;;;;;;;3.30;3.10;;;4.60;99.90;;;;;;5073594;28;20076;-82
2021/10/13 02:53:42;;;;;;;3.95;3.53;;;4.60;99.90;;;;;;5073017;28;20416;-82
2021/10/13 02:56:20;;;;;;;4.13;3.83;;;4.60;99.90;;;;;;5072943;28;20136;-81
2021/10/13 02:59:01;;;;;;;4.65;4.25;;;4.60;99.90;;;;;;5074266;28;20512;-82
2021/10/13 03:01:34;;;;;;;4.30;3.90;;;4.60;99.90;;;;;;5073415;28;20135;-81
2021/10/13 03:04:03;;;;;;;;;;;4.60;99.90;;;;;;5073034;28;20049;-82
2021/10/13 03:06:43;;;;;;;4.47;4.07;;;4.60;99.90;;;;;;5075335;28;20019;-82
2021/10/13 03:09:10;;;;;;;4.10;3.80;;;4.70;99.90;;;;;;5075499;28;20128;-82
2021/10/13 03:11:39;;;;;;;4.13;3.72;;;4.70;99.90;;;;;;5076853;28;20409;-82
2021/10/13 03:14:07;;;;;;;3.58;3.28;;;4.70;99.90;;;;;;5077519;28;20048;-82
2021/10/13 03:16:35;;;;;;;4.28;3.70;;;4.70;99.90;;;;;;5078891;28;20092;-82
2021/10/13 03:19:04;;;;;;;3.65;3.35;;;4.70;99.90;;;;;;5076957;28;20055;-81
2021/10/13 03:21:33;;;;;;;3.92;3.63;;;4.80;99.90;;;;;;5076982;28;20481;-81
2021/10/13 03:24:00;;;;;;;4.00;3.70;;;4.80;99.90;;;;;;5078423;28;20127;-82
2021/10/13 03:26:26;;;;;;;3.80;3.50;;;4.80;99.90;;;;;;5077296;28;20424;-81
2021/10/13 03:28:53;;;;;;;4.00;3.60;;;4.80;99.90;;;;;;5079508;28;20553;-81
2021/10/13 03:31:20;;;;;;;4.20;3.80;;;4.80;99.90;;;;;;5077222;28;20044;-79
2021/10/13 03:33:49;;;;;;;3.42;3.22;;;4.70;99.90;;;;;;5076361;28;20051;-79
2021/10/13 03:36:15;;;;;;;4.10;3.80;;;4.80;99.90;;;;;;5078471;28;20052;-80
2021/10/13 03:38:42;;;;;;;3.83;3.47;;;4.80;99.90;;;;;;5076959;28;20131;-79
2021/10/13 03:41:09;;;;;;;4.43;3.40;;;4.80;99.90;;;;;;5078724;28;20144;-80
2021/10/13 03:43:47;;;;;;;3.55;3.25;;;4.80;99.90;;;;;;5077648;28;20135;-80
2021/10/13 03:46:21;;;;;;;6.00;4.20;;;4.80;99.90;;;;;;5077027;28;20053;-79
2021/10/13 03:48:50;;;;;;;3.60;3.30;;;4.80;99.90;;;;;;5076042;28;20416;-77
2021/10/13 03:51:21;;;;;;;3.80;3.47;;;4.80;99.90;;;;;;5075618;28;20094;-78
2021/10/13 03:53:48;;;;;;;4.63;3.15;;;4.70;99.90;;;;;;5074904;28;20130;-78
2021/10/13 03:56:16;;;;;;;4.15;3.72;;;4.70;99.90;;;;;;5076140;28;20107;-79
2021/10/13 03:58:43;;;;;;;4.13;3.75;;;4.70;99.90;;;;;;5075049;28;20084;-78
2021/10/13 04:01:09;;;;;;;4.05;3.70;;;4.70;99.90;;;;;;5076574;28;20560;-78
2021/10/13 04:03:36;;;;;;;5.85;3.78;;;4.70;99.90;;;;;;5077252;28;20056;-78
2021/10/13 04:06:03;;;;;;;5.13;4.72;;;4.80;99.90;;;;;;5075253;28;20068;-78
2021/10/13 04:08:30;;;;;;;4.97;4.32;;;4.80;99.90;;;;;;5075057;28;20052;-78
2021/10/13 04:10:57;;;;;;;5.93;4.13;;;4.80;99.90;;;;;;5074762;28;20056;-78
2021/10/13 04:13:24;;;;;;;7.18;4.38;;;4.80;99.90;;;;;;5076031;28;20080;-78
2021/10/13 04:15:51;;;;;;;6.53;4.72;;;4.80;99.90;;;;;;5075742;28;20080;-79
2021/10/13 04:18:17;;;;;;;6.03;4.47;;;4.80;99.90;;;;;;5075180;28;20040;-79
2021/10/13 04:20:44;;;;;;;5.03;3.53;;;4.80;99.90;;;;;;5074279;28;20045;-79
2021/10/13 04:23:15;;;;;;;7.78;4.00;;;4.80;99.90;;;;;;5074990;28;20585;-78
2021/10/13 04:25:42;;;;;;;6.18;4.65;;;4.80;99.90;;;;;;5075664;28;20045;-79
2021/10/13 04:28:09;;;;;;;4.68;4.28;;;4.80;99.90;;;;;;5076179;28;20472;-78
2021/10/13 04:30:37;;;;;;;5.05;4.65;;;4.90;99.90;;;;;;5075043;28;20048;-79
2021/10/13 04:33:04;;;;;;;4.38;3.97;;;4.90;99.90;;;;;;5076219;28;20045;-79
2021/10/13 04:35:31;;;;;;;4.60;4.20;;;4.90;99.90;;;;;;5076307;28;20119;-78
2021/10/13 04:38:02;;;;;;;4.05;3.67;;;4.90;99.90;;;;;;5074881;28;20053;-79
2021/10/13 04:40:28;;;;;;;6.60;3.95;;;4.70;99.90;;;;;;5076359;28;20202;-78
2021/10/13 04:42:55;;;;;;;4.10;3.70;;;4.80;99.90;;;;;;5074833;28;20144;-79
2021/10/13 04:45:22;;;;;;;3.78;3.50;;;4.80;99.90;;;;;;5075032;28;20080;-79
2021/10/13 04:47:48;;;;;;;4.20;3.72;;;4.80;99.90;;;;;;5076276;28;20080;-79
2021/10/13 04:50:15;;;;;;;6.00;4.32;;;4.80;99.90;;;;;;5075749;28;20091;-79
2021/10/13 04:52:42;;;;;;;4.68;4.28;;;4.70;99.90;;;;;;5077286;28;20124;-79
2021/10/13 04:55:09;;;;;;;5.85;4.20;;;4.70;99.90;;;;;;5076956;28;20139;-79
2021/10/13 04:57:36;;;;;;;5.38;4.65;;;4.70;99.90;;;;;;5075745;28;20044;-79
2021/10/13 05:00:05;;;;;;;3.67;3.38;;;4.70;99.90;;;;;;5077457;28;20143;-80
2021/10/13 05:02:31;;;;;;;4.90;4.40;;;4.70;99.90;;;;;;5077555;28;20123;-80
2021/10/13 05:08:39;;;;;;;4.03;3.72;;;4.70;99.90;;;;;;5216462;22;20406;-93
2021/10/13 05:11:06;;;;;;;4.47;3.85;;;4.60;99.90;;;;;;5015142;28;20056;-92
2021/10/13 05:13:33;;;;;;;6.30;4.32;;;4.60;99.90;;;;;;5014211;28;20048;-93
2021/10/13 05:16:00;;;;;;;7.22;4.10;;;4.60;99.90;;;;;;5013993;28;20057;-93
2021/10/13 05:18:27;;;;;;;8.63;6.00;;;4.60;99.90;;;;;;5014114;28;20045;-93
2021/10/13 05:20:53;;;;;;;4.97;4.53;;;4.50;99.90;;;;;;5014848;28;20605;-93
2021/10/13 05:23:20;;;;;;;5.07;4.68;;;4.60;99.90;;;;;;5013833;28;20089;-93
2021/10/13 05:25:47;;;;;;;5.65;4.90;;;4.60;99.90;;;;;;5014690;28;20141;-94
2021/10/13 05:28:14;;;;;;;6.45;5.75;;;4.60;99.90;;;;;;5015294;28;20053;-92
2021/10/13 05:30:41;;;;;;;9.82;7.35;;;4.60;99.90;;;;;;5016498;28;20055;-93
2021/10/13 05:33:07;;;;;;;7.03;5.85;;;4.50;99.90;;;;;;5033616;28;20050;-92
2021/10/13 05:35:35;;;;;;;6.00;5.28;;;4.60;99.90;;;;;;5013656;28;20050;-93
2021/10/13 05:38:02;;;;;;;6.15;5.55;;;4.70;99.90;;;;;;5014890;28;20050;-92
2021/10/13 05:40:29;;;;;;;5.80;5.10;;;4.80;99.90;;;;;;5013615;28;20061;-93
2021/10/13 05:42:56;;;;;;;5.30;4.80;;;4.70;99.90;;;;;;5013821;28;20144;-93
2021/10/13 05:45:23;;;;;;;6.95;5.45;;;4.80;99.90;;;;;;5014530;28;20137;-92
2021/10/13 05:47:49;;;;;;;4.53;4.13;;;4.80;99.90;;;;;;5016382;28;20133;-92
2021/10/13 05:50:16;;;;;;;5.03;4.53;;;4.80;99.90;;;;;;5013887;28;20514;-93
2021/10/13 05:52:43;;;;;;;5.55;5.00;;;4.80;99.90;;;;;;5015443;28;20133;-92
2021/10/13 05:55:10;;;;;;;6.20;4.80;;;4.90;99.90;;;;;;5018789;28;20046;-93
2021/10/13 05:57:37;;;;;;;4.80;4.40;;;4.80;99.90;;;;;;5021052;28;20072;-94
2021/10/13 06:00:05;;;;;;;16.50;9.48;;;4.80;99.90;;;;;;5020815;28;20094;-94
2021/10/13 06:02:34;;;;;;;14.95;7.68;;;4.80;99.90;;;;;;5016457;28;20053;-93
2021/10/13 06:05:02;;;;;;;12.18;7.50;;;4.90;99.90;;;;;;5013219;28;20521;-93
2021/10/13 06:07:32;;;;;;;7.90;6.95;;;5.00;99.90;;;;;;5013067;28;20056;-92
2021/10/13 06:09:59;;;;;;;8.60;6.15;;;5.00;99.90;;;;;;5012940;28;20050;-93
2021/10/13 06:12:25;;;;;;;7.22;6.30;;;5.10;99.90;;;;;;5013402;28;20427;-93
2021/10/13 06:14:52;;;;;;;8.50;5.75;;;5.10;99.90;;;;;;5013071;28;20046;-92
2021/10/13 06:17:20;;;;;;;6.55;5.43;;;5.10;99.90;;;;;;5013140;28;20076;-93
2021/10/13 06:19:47;;;;;;;5.97;5.40;;;5.10;99.90;;;;;;5014000;28;20056;-94
2021/10/13 06:22:14;;;;;;;7.80;6.25;;;5.20;99.90;;;;;;5014182;28;20133;-94
2021/10/13 06:24:41;;;;;;;8.00;6.50;;;5.20;99.90;;;;;;5012985;28;20054;-93
2021/10/13 06:27:07;;;;;;;10.32;7.78;;;5.30;99.90;;;;;;5013061;28;20163;-92
2021/10/13 06:29:34;;;;;;;8.38;7.50;;;5.40;99.90;;;;;;5014098;28;20056;-93
2021/10/13 06:32:01;;;;;;;11.57;6.50;;;5.40;99.90;;;;;;5013027;28;20049;-94
2021/10/13 06:34:28;;;;;;;19.10;7.38;;;5.50;99.90;;;;;;5014336;28;20490;-94
2021/10/13 06:36:54;;;;;;;10.18;8.57;;;5.60;99.90;;;;;;5013005;28;20084;-93
2021/10/13 06:39:21;;;;;;;11.20;8.52;;;5.60;99.90;;;;;;5013032;28;20132;-91
2021/10/13 06:41:49;;;;;;;7.45;6.75;;;5.60;99.90;;;;;;5014163;28;20050;-94
2021/10/13 06:44:15;;;;;;;10.80;6.78;;;5.70;99.90;;;;;;5014370;28;20061;-94
2021/10/13 06:46:43;;;;;;;9.40;8.30;;;5.70;99.90;;;;;;5017942;28;20081;-93
2021/10/13 06:49:09;;;;;;;15.75;12.73;;;5.90;99.90;;;;;;5026794;28;20053;-93
2021/10/13 06:51:36;;;;;;;18.90;16.58;;;6.00;99.90;;;;;;5030127;28;20113;-93
2021/10/13 06:54:03;;;;;;;15.05;11.30;;;6.10;99.90;;;;;;5017139;28;20109;-93
2021/10/13 06:56:30;;;;;;;9.43;7.00;;;6.20;99.90;;;;;;5016947;28;20547;-93
2021/10/13 06:58:57;;;;;;;7.03;5.22;;;6.30;99.90;;;;;;5016818;28;20050;-93
2021/10/13 07:01:24;;;;;;;6.13;5.07;;;6.30;99.90;;;;;;5016806;28;20088;-94
2021/10/13 07:03:51;;;;;;;7.22;6.47;;;6.40;99.90;;;;;;5017455;28;20564;-94
2021/10/13 07:06:17;;;;;;;7.88;6.88;;;6.70;99.90;;;;;;5016390;28;20050;-93
2021/10/13 07:08:44;;;;;;;6.88;6.28;;;6.70;99.90;;;;;;5016464;28;20554;-94
2021/10/13 07:11:11;;;;;;;4.28;3.38;;;6.90;99.90;;;;;;5015997;28;20050;-94
2021/10/13 07:13:38;;;;;;;4.65;3.97;;;7.00;99.90;;;;;;5016309;28;20050;-94
2021/10/13 07:16:05;;;;;;;6.90;6.20;;;7.10;99.90;;;;;;5016459;28;20049;-94
2021/10/13 07:18:32;;;;;;;10.88;9.77;;;7.20;99.90;;;;;;5016570;28;20049;-95
2021/10/13 07:20:59;;;;;;;9.57;8.77;;;7.40;99.90;;;;;;5015991;28;20053;-94
2021/10/13 07:23:26;;;;;;;8.70;7.85;;;7.50;99.90;;;;;;5017105;28;20052;-94
2021/10/13 07:25:53;;;;;;;8.45;7.45;;;7.60;99.90;;;;;;5017000;28;20057;-94
2021/10/13 07:28:20;;;;;;;8.40;7.70;;;7.80;99.90;;;;;;5016257;28;20060;-94
2021/10/13 07:30:47;;;;;;;5.47;5.07;;;8.10;99.90;;;;;;5015741;28;20049;-93
2021/10/13 07:33:13;;;;;;;6.35;5.78;;;8.20;99.90;;;;;;5017010;28;20056;-92
2021/10/13 07:35:41;;;;;;;4.82;4.53;;;8.40;99.90;;;;;;5016219;28;20065;-94
2021/10/13 07:38:13;;;;;;;4.93;4.43;;;8.50;99.90;;;;;;5016979;28;20471;-95
2021/10/13 07:40:39;;;;;;;4.78;3.85;;;8.50;99.90;;;;;;5016760;28;20130;-94
2021/10/13 07:43:08;;;;;;;5.38;3.53;;;8.50;99.90;;;;;;5016042;28;20128;-94
2021/10/13 07:45:35;;;;;;;2.80;2.60;;;8.60;99.90;;;;;;5015549;28;20176;-93
2021/10/13 07:48:03;;;;;;;3.50;2.60;;;8.50;99.90;;;;;;5016545;28;20518;-94
2021/10/13 07:50:30;;;;;;;5.65;2.83;;;8.50;99.90;;;;;;5016137;28;20073;-95
2021/10/13 07:52:56;;;;;;;6.22;2.45;;;8.80;99.90;;;;;;5015882;28;20053;-94
2021/10/13 07:55:23;;;;;;;2.70;2.20;;;9.30;99.90;;;;;;5014899;28;20141;-94
2021/10/13 07:57:50;;;;;;;3.38;1.95;;;9.70;99.90;;;;;;5015289;28;20107;-94
2021/10/13 08:00:19;;;;;;;2.92;1.60;;;10.00;99.90;;;;;;5015810;28;20046;-95
2021/10/13 08:02:47;;;;;;;3.60;1.40;;;10.50;99.90;;;;;;5015374;28;20045;-93
2021/10/13 08:05:16;;;;;;;2.30;1.30;;;11.10;99.90;;;;;;5017067;28;20050;-94
2021/10/13 08:07:43;;;;;;;5.28;1.13;;;11.60;99.90;;;;;;5033161;28;20026;-95
2021/10/13 08:10:10;;;;;;;3.45;0.90;;;12.20;99.90;;;;;;5017431;28;20056;-93
2021/10/13 08:12:38;;;;;;;4.63;1.35;;;12.20;99.90;;;;;;5015117;28;20084;-93
2021/10/13 08:15:06;;;;;;;2.30;1.42;;;11.20;99.90;;;;;;5015265;28;20049;-94
2021/10/13 08:17:33;;;;;;;3.55;1.77;;;11.20;99.90;;;;;;5015088;28;20060;-91
2021/10/13 08:20:03;;;;;;;3.42;1.50;;;10.90;99.90;;;;;;5015077;28;20133;-94
2021/10/13 08:22:30;;;;;;;6.47;1.70;;;10.70;99.90;;;;;;5015069;28;20483;-94
2021/10/13 08:24:57;;;;;;;2.47;1.27;;;10.80;99.90;;;;;;5015032;28;20096;-93
2021/10/13 08:27:24;;;;;;;3.83;1.30;;;11.10;99.90;;;;;;5015634;28;20045;-91
2021/10/13 08:29:50;;;;;;;2.05;0.90;;;12.30;99.90;;;;;;5015688;28;20058;-91
2021/10/13 08:32:17;;;;;;;2.63;0.90;;;12.70;99.90;;;;;;5015054;28;20072;-90
2021/10/13 08:34:44;;;;;;;2.10;1.02;;;12.90;99.90;;;;;;5015832;28;20414;-90
2021/10/13 08:37:11;;;;;;;2.47;0.70;;;13.50;99.90;;;;;;5014588;28;20053;-93
2021/10/13 08:39:38;;;;;;;4.75;0.93;;;14.10;99.90;;;;;;5015539;28;20050;-95
2021/10/13 08:42:04;;;;;;;3.65;1.10;;;13.50;99.90;;;;;;5014954;28;20473;-93
2021/10/13 08:44:32;;;;;;;3.83;0.90;;;13.70;99.90;;;;;;5014515;28;20056;-93
2021/10/13 08:47:00;;;;;;;3.33;1.08;;;15.10;99.90;;;;;;5014370;28;20069;-95
2021/10/13 08:49:27;;;;;;;2.95;0.70;;;15.60;99.90;;;;;;5015342;28;20414;-93
2021/10/13 08:51:53;;;;;;;1.50;0.70;;;15.10;99.90;;;;;;5015748;28;20052;-95
2021/10/13 08:54:21;;;;;;;3.03;0.30;;;14.90;99.90;;;;;;5015598;28;20046;-91
2021/10/13 08:56:48;;;;;;;0.65;0.40;;;15.20;99.90;;;;;;5014870;28;20057;-92
2021/10/13 08:59:42;;;;;;;4.47;0.47;;;18.00;99.90;;;;;;5015357;28;20507;-91
2021/10/13 09:02:10;;;;;;;0.52;0.30;;;21.00;95.70;;;;;;5013505;28;20072;-93
2021/10/13 09:05:09;;;;;;;4.10;0.95;;;21.10;82.20;;;;;;5015634;28;20050;-92
2021/10/13 09:07:38;;;;;;;4.82;0.63;;;19.20;84.30;;;;;;5014551;28;20400;-93
2021/10/13 09:10:08;;;;;;;11.68;1.08;;;17.80;90.70;;;;;;5015743;28;20058;-94
2021/10/13 09:12:38;;;;;;;4.22;0.77;;;16.50;91.90;;;;;;5014147;28;20054;-92
2021/10/13 09:15:15;;;;;;;0.77;0.50;;;14.70;95.50;;;;;;5014570;28;20054;-94
2021/10/13 09:17:53;;;;;;;1.13;0.65;;;13.30;99.90;;;;;;5013954;28;20049;-93
2021/10/13 09:20:22;;;;;;;2.05;0.80;;;12.40;99.90;;;;;;5013261;28;20055;-93
2021/10/13 09:22:56;;;;;;;2.03;0.68;;;12.00;99.90;;;;;;5014930;28;20453;-93
2021/10/13 09:25:23;;;;;;;3.45;1.17;;;11.30;99.90;;;;;;5029960;28;20069;-93
2021/10/13 09:27:51;;;;;;;2.20;0.98;;;11.30;99.90;;;;;;5015840;28;20402;-94
2021/10/13 09:30:29;;;;;;;12.88;1.80;;;12.50;99.90;;;;;;5013330;28;20053;-92
2021/10/13 09:33:14;;;;;;;3.00;0.82;;;12.70;99.90;;;;;;5013491;28;20045;-93
2021/10/13 09:35:45;;;;;;;5.43;0.82;;;12.50;99.90;;;;;;5013459;28;20081;-96
2021/10/13 09:38:20;;;;;;;9.68;1.20;;;12.30;99.90;;;;;;5014587;28;20103;-93
2021/10/13 09:40:49;;;;;;;2.67;0.90;;;11.90;99.90;;;;;;5013232;28;20053;-92
2021/10/13 09:43:38;;;;;;;5.57;1.23;;;11.50;99.90;;;;;;5013460;28;20099;-93
2021/10/13 09:46:11;;;;;;;4.45;0.80;;;11.10;99.90;;;;;;5013171;28;20084;-92
2021/10/13 09:48:43;;;;;;;4.28;0.82;;;11.10;99.90;;;;;;5013285;28;20050;-94
2021/10/13 09:51:20;;;;;;;6.20;1.30;;;13.40;99.90;;;;;;5013061;28;20131;-91
2021/10/13 09:53:49;;;;;;;3.55;0.80;;;16.20;99.90;;;;;;5013185;28;20097;-91
2021/10/13 09:56:34;;;;;;;2.97;0.40;;;18.60;95.90;;;;;;5020237;28;20137;-93
2021/10/13 09:59:18;;;;;;;6.13;0.70;;;19.20;89.40;;;;;;5019771;28;20129;-95
2021/10/13 10:01:58;;;;;;;1.35;0.50;;;19.60;88.10;;;;;;5014816;28;20046;-91
2021/10/13 10:04:28;;;;;;;2.38;0.70;;;20.50;78.50;;;;;;5014697;28;20495;-92
2021/10/13 10:06:57;;;;;;;5.65;0.52;;;20.20;75.80;;;;;;5014024;28;20057;-95
2021/10/13 10:09:27;;;;;;;10.25;0.68;;;19.90;79.00;;;;;;5012962;28;20141;-92
2021/10/13 10:12:05;;;;;;;3.50;0.45;;;19.30;77.70;;;;;;5015772;28;20502;-94
2021/10/13 10:14:43;;;;;;;1.90;0.40;;;17.60;76.70;;;;;;5012799;28;20073;-92
2021/10/13 10:17:11;;;;;;;1.90;0.60;;;16.40;82.30;;;;;;5013781;28;20406;-91
2021/10/13 10:19:40;;;;;;;3.95;0.60;;;15.60;86.40;;;;;;5012056;28;20132;-92
2021/10/13 10:22:21;;;;;;;7.10;0.80;;;14.60;90.10;;;;;;5012884;28;20052;-91
2021/10/13 10:24:55;;;;;;;6.55;0.55;;;13.80;93.00;;;;;;5012972;28;20069;-92
2021/10/13 10:27:31;;;;;;;1.30;0.60;;;14.70;95.00;;;;;;5013629;28;20413;-92
2021/10/13 10:30:07;;;;;;;2.15;0.47;;;17.30;89.70;;;;;;5014566;28;20058;-88
2021/10/13 10:32:34;;;;;;;1.90;0.30;;;19.90;80.30;;;;;;5013811;28;20464;-89
2021/10/13 10:35:14;;;;;;;20.25;1.75;;;20.80;75.00;;;;;;5013899;28;20052;-89
2021/10/13 10:37:53;;;;;;;2.05;0.70;;;21.30;72.70;;;;;;5014061;28;20072;-88
2021/10/13 10:40:35;;;;;;;0.75;0.30;;;21.90;69.70;;;;;;5018976;28;20104;-92
2021/10/13 10:43:19;;;;;;;9.93;0.93;;;20.50;69.80;;;;;;5031989;28;20513;-91
2021/10/13 10:45:58;;;;;;;2.33;0.50;;;19.30;72.20;;;;;;5016100;28;20140;-94
2021/10/13 10:48:42;;;;;;;4.93;0.60;;;18.60;71.90;;;;;;5015262;28;20050;-93
2021/10/13 10:51:09;;;;;;;3.22;0.52;;;18.40;74.80;;;;;;5013126;28;20081;-92
2021/10/13 10:53:38;;;;;;;0.52;0.40;;;18.90;75.30;;;;;;5017213;28;20141;-96
2021/10/13 10:56:18;;;;;;;1.55;0.45;;;19.20;71.80;;;;;;5012259;28;20046;-90
2021/10/13 10:59:07;;;;;;;5.00;1.20;;;20.30;71.20;;;;;;5014611;28;20069;-91
2021/10/13 11:01:35;;;;;;;4.53;0.57;;;20.50;69.30;;;;;;5012470;28;20136;-89
2021/10/13 11:04:07;;;;;;;2.72;0.50;;;21.80;63.80;;;;;;5012666;28;20169;-89
2021/10/13 11:06:36;;;;;;;2.72;0.50;;;22.20;65.80;;;;;;5011965;28;20053;-92
2021/10/13 11:09:08;;;;;;;0.63;0.25;;;22.90;64.90;;;;;;5012726;28;20060;-90
2021/10/13 11:11:45;;;;;;;2.25;0.50;;;22.70;63.40;;;;;;5014148;28;20476;-90
2021/10/13 11:14:24;;;;;;;8.90;1.02;;;23.60;61.70;;;;;;5013058;28;20053;-92
2021/10/13 11:16:55;;;;;;;2.78;0.60;;;24.10;58.40;;;;;;5013014;28;20125;-90
2021/10/13 11:19:33;;;;;;;7.15;1.67;;;23.50;58.80;;;;;;5013327;28;20141;-89
2021/10/13 11:22:09;;;;;;;6.63;0.88;;;21.60;60.70;;;;;;5011788;28;20058;-90
2021/10/13 11:24:39;;;;;;;0.40;0.40;;;20.30;65.20;;;;;;5012532;28;20049;-89
2021/10/13 11:27:06;;;;;;;6.82;1.38;;;18.70;66.60;;;;;;5012377;28;20061;-91
2021/10/13 11:29:35;;;;;;;2.88;0.57;;;17.30;71.90;;;;;;5012613;28;20098;-92
2021/10/13 11:32:14;;;;;;;1.65;0.40;;;16.20;72.40;;;;;;5014819;28;20045;-90
2021/10/13 11:34:43;;;;;;;1.23;0.60;;;14.80;76.70;;;;;;5016839;28;20046;-91
2021/10/13 11:37:11;;;;;;;1.20;0.50;;;13.80;82.70;;;;;;5015682;28;20045;-91
2021/10/13 11:39:44;;;;;;;11.13;1.75;;;14.40;87.10;;;;;;5016232;28;20076;-92
2021/10/13 11:42:14;;;;;;;0.75;0.40;;;15.40;83.80;;;;;;5015808;28;20042;-90
2021/10/13 11:44:50;;;;;;;4.75;0.60;;;16.80;80.20;;;;;;5017001;28;20063;-92
2021/10/13 11:47:30;;;;;;;0.68;0.45;;;17.70;72.00;;;;;;5015396;28;20060;-91
2021/10/13 11:49:59;;;;;;;2.40;0.70;;;18.40;72.30;;;;;;5015673;28;20054;-88
2021/10/13 11:52:26;;;;;;;147.65;117.57;;;18.30;71.70;;;;;;5016603;28;20433;-90
2021/10/13 11:55:04;;;;;;;26.75;18.38;;;17.60;72.40;;;;;;5016709;28;20064;-90
2021/10/13 11:57:30;;;;;;;4.55;1.10;;;16.30;75.00;;;;;;5020389;28;20136;-89
2021/10/13 12:00:17;;;;;;;2.47;0.70;;;15.50;80.60;;;;;;5035700;28;20049;-91
2021/10/13 12:03:01;;;;;;;2.20;0.50;;;14.90;84.70;;;;;;5016445;28;20100;-92
2021/10/13 12:05:40;;;;;;;3.85;0.80;;;14.50;84.80;;;;;;5015403;28;20092;-90
2021/10/13 12:08:12;;;;;;;2.28;0.60;;;13.70;89.30;;;;;;5015218;28;20419;-89
2021/10/13 12:10:49;;;;;;;1.88;0.68;;;13.50;90.70;;;;;;5015134;28;20052;-91
2021/10/13 12:13:19;;;;;;;10.90;1.08;;;13.90;93.50;;;;;;5015480;28;20572;-91
2021/10/13 12:15:48;;;;;;;19.83;1.88;;;14.20;92.80;;;;;;5015141;28;20077;-91
2021/10/13 12:18:19;;;;;;;14.65;1.42;;;14.20;92.30;;;;;;5015076;28;20421;-92
2021/10/13 12:21:12;;;;;;;1.70;0.35;;;14.00;91.30;;;;;;5015987;28;20050;-94
2021/10/13 12:23:40;;;;;;;4.93;0.50;;;13.50;91.20;;;;;;5018508;28;20058;-94
2021/10/13 12:26:12;;;;;;;8.32;1.25;;;13.20;90.30;;;;;;5018242;28;20068;-95
2021/10/13 12:28:40;;;;;;;5.22;0.95;;;12.70;91.90;;;;;;5015256;28;20088;-91
2021/10/13 12:31:10;;;;;;;2.67;0.50;;;12.50;92.50;;;;;;5015941;28;20042;-93
2021/10/13 12:33:42;;;;;;;9.50;1.25;;;12.40;94.40;;;;;;5014584;28;20486;-91
2021/10/13 12:36:15;;;;;;;9.15;1.00;;;12.50;93.70;;;;;;5015400;28;20049;-93
2021/10/13 12:38:46;;;;;;;15.70;1.25;;;12.50;93.20;;;;;;5010661;28;20125;-93
2021/10/13 12:41:14;;;;;;;6.05;0.35;;;12.60;93.80;;;;;;5015261;28;20472;-92
2021/10/13 12:43:45;;;;;;;4.20;0.60;;;12.50;92.50;;;;;;5014469;28;20050;-94
2021/10/13 12:46:28;;;;;;;2.63;0.60;;;12.50;92.50;;;;;;5016910;28;20473;-94
2021/10/13 12:48:56;;;;;;;1.70;0.50;;;12.50;92.80;;;;;;5015167;28;20053;-95
2021/10/13 12:51:48;;;;;;;0.50;0.40;;;12.80;94.30;;;;;;5016201;28;20324;-94
2021/10/13 12:54:17;;;;;;;;;;;13.30;92.90;;;;;;5017419;28;20104;-96
2021/10/13 12:56:45;;;;;;;4.25;0.55;;;13.60;92.70;;;;;;5016859;28;19976;-94
2021/10/13 12:59:12;;;;;;;4.10;0.45;;;13.70;90.70;;;;;;5014938;28;20086;-92
2021/10/13 13:01:39;;;;;;;2.30;0.70;;;14.00;91.10;;;;;;5014261;28;20053;-92
2021/10/13 13:04:06;;;;;;;1.63;0.55;;;13.90;89.20;;;;;;5014470;28;20042;-91
2021/10/13 13:06:32;;;;;;;2.80;0.40;;;13.90;91.50;;;;;;5015210;28;20421;-93
2021/10/13 13:09:00;;;;;;;1.48;0.38;;;13.60;90.70;;;;;;5014557;28;20061;-92
2021/10/13 13:11:27;;;;;;;1.73;0.30;;;13.50;91.70;;;;;;5015843;28;20049;-94
2021/10/13 13:13:54;;;;;;;2.55;0.80;;;13.60;90.60;;;;;;5019390;28;20084;-90